sensor_id;sensor_type;location;lat;lon;timestamp;temperature;humidity
47757;SHT35;22147;52.388;13.390;2023-11-19T00:00:34;4.24;85.36
47757;SHT35;22147;52.388;13.390;2023-11-19T00:03:04;4.19;85.06
47757;SHT35;22147;52.388;13.390;2023-11-19T00:05:35;4.14;84.77
47757;SHT35;22147;52.388;13.390;2023-11-19T00:08:05;4.15;84.84
47757;SHT35;22147;52.388;13.390;2023-11-19T00:10:36;4.15;85.09
47757;SHT35;22147;52.388;13.390;2023-11-19T00:13:06;4.18;85.06
47757;SHT35;22147;52.388;13.390;2023-11-19T00:15:36;4.18;84.98
47757;SHT35;22147;52.388;13.390;2023-11-19T00:18:07;4.18;85.13
47757;SHT35;22147;52.388;13.390;2023-11-19T00:20:37;4.16;85.02
47757;SHT35;22147;52.388;13.390;2023-11-19T00:23:07;4.21;85.02
47757;SHT35;22147;52.388;13.390;2023-11-19T00:25:37;4.25;84.87
47757;SHT35;22147;52.388;13.390;2023-11-19T00:28:08;4.22;84.70
47757;SHT35;22147;52.388;13.390;2023-11-19T00:30:38;4.24;84.66
47757;SHT35;22147;52.388;13.390;2023-11-19T00:33:10;4.18;84.83
47757;SHT35;22147;52.388;13.390;2023-11-19T00:35:40;4.21;84.84
47757;SHT35;22147;52.388;13.390;2023-11-19T00:38:10;4.24;85.02
47757;SHT35;22147;52.388;13.390;2023-11-19T00:40:40;4.29;84.88
47757;SHT35;22147;52.388;13.390;2023-11-19T00:43:10;4.29;84.56
47757;SHT35;22147;52.388;13.390;2023-11-19T00:45:41;4.25;84.51
47757;SHT35;22147;52.388;13.390;2023-11-19T00:48:11;4.32;84.57
47757;SHT35;22147;52.388;13.390;2023-11-19T00:50:41;4.35;84.25
47757;SHT35;22147;52.388;13.390;2023-11-19T00:53:14;4.31;84.32
47757;SHT35;22147;52.388;13.390;2023-11-19T00:55:44;4.31;84.35
47757;SHT35;22147;52.388;13.390;2023-11-19T00:58:16;4.31;83.90
47757;SHT35;22147;52.388;13.390;2023-11-19T01:00:47;4.31;84.12
47757;SHT35;22147;52.388;13.390;2023-11-19T01:03:18;4.34;84.01
47757;SHT35;22147;52.388;13.390;2023-11-19T01:05:48;4.36;83.95
47757;SHT35;22147;52.388;13.390;2023-11-19T01:08:16;4.39;83.81
47757;SHT35;22147;52.388;13.390;2023-11-19T01:10:45;4.36;83.76
47757;SHT35;22147;52.388;13.390;2023-11-19T01:13:13;4.34;83.78
47757;SHT35;22147;52.388;13.390;2023-11-19T01:15:42;4.32;83.42
47757;SHT35;22147;52.388;13.390;2023-11-19T01:18:10;4.34;83.57
47757;SHT35;22147;52.388;13.390;2023-11-19T01:20:38;4.38;83.80
47757;SHT35;22147;52.388;13.390;2023-11-19T01:23:07;4.44;83.46
47757;SHT35;22147;52.388;13.390;2023-11-19T01:25:35;4.49;83.56
47757;SHT35;22147;52.388;13.390;2023-11-19T01:28:04;4.42;82.99
47757;SHT35;22147;52.388;13.390;2023-11-19T01:30:32;4.41;83.22
47757;SHT35;22147;52.388;13.390;2023-11-19T01:33:01;4.39;83.12
47757;SHT35;22147;52.388;13.390;2023-11-19T01:35:29;4.49;83.41
47757;SHT35;22147;52.388;13.390;2023-11-19T01:37:57;4.56;83.19
47757;SHT35;22147;52.388;13.390;2023-11-19T01:40:26;4.56;83.31
47757;SHT35;22147;52.388;13.390;2023-11-19T01:42:54;4.55;82.73
47757;SHT35;22147;52.388;13.390;2023-11-19T01:45:33;4.53;82.76
47757;SHT35;22147;52.388;13.390;2023-11-19T01:48:04;4.53;83.25
47757;SHT35;22147;52.388;13.390;2023-11-19T01:50:34;4.53;83.72
47757;SHT35;22147;52.388;13.390;2023-11-19T01:53:05;4.53;83.82
47757;SHT35;22147;52.388;13.390;2023-11-19T01:55:35;4.55;83.79
47757;SHT35;22147;52.388;13.390;2023-11-19T01:58:07;4.55;83.75
47757;SHT35;22147;52.388;13.390;2023-11-19T02:00:37;4.55;83.69
47757;SHT35;22147;52.388;13.390;2023-11-19T02:03:09;4.57;83.94
47757;SHT35;22147;52.388;13.390;2023-11-19T02:05:40;4.60;83.58
47757;SHT35;22147;52.388;13.390;2023-11-19T02:08:10;4.66;83.75
47757;SHT35;22147;52.388;13.390;2023-11-19T02:10:43;4.63;83.54
47757;SHT35;22147;52.388;13.390;2023-11-19T02:13:12;4.57;83.38
47757;SHT35;22147;52.388;13.390;2023-11-19T02:15:43;4.57;83.52
47757;SHT35;22147;52.388;13.390;2023-11-19T02:18:26;4.63;83.99
47757;SHT35;22147;52.388;13.390;2023-11-19T02:20:59;4.63;83.74
47757;SHT35;22147;52.388;13.390;2023-11-19T02:23:30;4.67;83.82
47757;SHT35;22147;52.388;13.390;2023-11-19T02:28:56;4.72;83.81
47757;SHT35;22147;52.388;13.390;2023-11-19T02:31:26;4.69;83.96
47757;SHT35;22147;52.388;13.390;2023-11-19T02:33:56;4.66;83.59
47757;SHT35;22147;52.388;13.390;2023-11-19T02:36:26;4.65;83.97
47757;SHT35;22147;52.388;13.390;2023-11-19T02:38:56;4.66;84.17
47757;SHT35;22147;52.388;13.390;2023-11-19T02:41:25;4.65;84.21
47757;SHT35;22147;52.388;13.390;2023-11-19T02:43:55;4.67;84.29
47757;SHT35;22147;52.388;13.390;2023-11-19T02:46:23;4.59;84.08
47757;SHT35;22147;52.388;13.390;2023-11-19T02:48:53;4.62;84.56
47757;SHT35;22147;52.388;13.390;2023-11-19T02:51:23;4.65;84.65
47757;SHT35;22147;52.388;13.390;2023-11-19T02:53:53;4.66;84.77
47757;SHT35;22147;52.388;13.390;2023-11-19T02:56:23;4.65;84.71
47757;SHT35;22147;52.388;13.390;2023-11-19T02:58:56;4.66;84.63
47757;SHT35;22147;52.388;13.390;2023-11-19T03:01:26;4.69;84.54
47757;SHT35;22147;52.388;13.390;2023-11-19T03:04:01;4.69;84.30
47757;SHT35;22147;52.388;13.390;2023-11-19T03:06:33;4.74;84.55
47757;SHT35;22147;52.388;13.390;2023-11-19T03:09:03;4.72;84.48
47757;SHT35;22147;52.388;13.390;2023-11-19T03:11:38;4.77;84.66
47757;SHT35;22147;52.388;13.390;2023-11-19T03:14:08;4.74;84.77
47757;SHT35;22147;52.388;13.390;2023-11-19T03:16:38;4.74;84.64
47757;SHT35;22147;52.388;13.390;2023-11-19T03:19:08;4.74;84.65
47757;SHT35;22147;52.388;13.390;2023-11-19T03:21:38;4.74;84.49
47757;SHT35;22147;52.388;13.390;2023-11-19T03:24:08;4.79;84.70
47757;SHT35;22147;52.388;13.390;2023-11-19T03:26:38;4.81;84.61
47757;SHT35;22147;52.388;13.390;2023-11-19T03:29:08;4.76;85.08
47757;SHT35;22147;52.388;13.390;2023-11-19T03:31:42;4.81;85.47
47757;SHT35;22147;52.388;13.390;2023-11-19T03:34:12;4.76;86.16
47757;SHT35;22147;52.388;13.390;2023-11-19T03:36:40;4.79;86.61
47757;SHT35;22147;52.388;13.390;2023-11-19T03:39:09;4.77;86.95
47757;SHT35;22147;52.388;13.390;2023-11-19T03:41:37;4.70;87.40
47757;SHT35;22147;52.388;13.390;2023-11-19T03:44:10;4.67;87.85
47757;SHT35;22147;52.388;13.390;2023-11-19T03:46:40;4.76;87.97
47757;SHT35;22147;52.388;13.390;2023-11-19T03:49:11;4.69;88.26
47757;SHT35;22147;52.388;13.390;2023-11-19T03:51:42;4.59;88.82
47757;SHT35;22147;52.388;13.390;2023-11-19T03:54:11;4.55;89.48
47757;SHT35;22147;52.388;13.390;2023-11-19T03:56:41;4.56;89.82
47757;SHT35;22147;52.388;13.390;2023-11-19T03:59:11;4.46;89.99
47757;SHT35;22147;52.388;13.390;2023-11-19T04:01:41;4.48;90.32
47757;SHT35;22147;52.388;13.390;2023-11-19T04:04:12;4.49;90.55
47757;SHT35;22147;52.388;13.390;2023-11-19T04:06:42;4.44;90.82
47757;SHT35;22147;52.388;13.390;2023-11-19T04:09:12;4.48;91.03
47757;SHT35;22147;52.388;13.390;2023-11-19T04:11:42;4.48;91.15
47757;SHT35;22147;52.388;13.390;2023-11-19T04:14:13;4.46;91.31
47757;SHT35;22147;52.388;13.390;2023-11-19T04:16:43;4.49;91.52
47757;SHT35;22147;52.388;13.390;2023-11-19T04:19:13;4.50;91.47
47757;SHT35;22147;52.388;13.390;2023-11-19T04:21:43;4.46;91.56
47757;SHT35;22147;52.388;13.390;2023-11-19T04:24:13;4.38;91.81
47757;SHT35;22147;52.388;13.390;2023-11-19T04:26:42;4.38;91.95
47757;SHT35;22147;52.388;13.390;2023-11-19T04:29:15;4.32;92.17
47757;SHT35;22147;52.388;13.390;2023-11-19T04:31:46;4.34;92.33
47757;SHT35;22147;52.388;13.390;2023-11-19T04:34:16;4.35;92.47
47757;SHT35;22147;52.388;13.390;2023-11-19T04:36:46;4.34;92.62
47757;SHT35;22147;52.388;13.390;2023-11-19T04:39:16;4.36;92.74
47757;SHT35;22147;52.388;13.390;2023-11-19T04:41:51;4.41;92.79
47757;SHT35;22147;52.388;13.390;2023-11-19T04:44:22;4.42;92.81
47757;SHT35;22147;52.388;13.390;2023-11-19T04:46:52;4.45;92.81
47757;SHT35;22147;52.388;13.390;2023-11-19T04:49:22;4.46;92.83
47757;SHT35;22147;52.388;13.390;2023-11-19T04:51:52;4.52;92.77
47757;SHT35;22147;52.388;13.390;2023-11-19T04:54:22;4.53;92.74
47757;SHT35;22147;52.388;13.390;2023-11-19T04:56:52;4.53;92.72
47757;SHT35;22147;52.388;13.390;2023-11-19T04:59:22;4.53;92.75
47757;SHT35;22147;52.388;13.390;2023-11-19T05:01:52;4.55;92.77
47757;SHT35;22147;52.388;13.390;2023-11-19T05:04:22;4.46;92.86
47757;SHT35;22147;52.388;13.390;2023-11-19T05:06:52;4.46;92.94
47757;SHT35;22147;52.388;13.390;2023-11-19T05:09:22;4.46;93.09
47757;SHT35;22147;52.388;13.390;2023-11-19T05:11:52;4.48;93.14
47757;SHT35;22147;52.388;13.390;2023-11-19T05:14:19;4.42;93.30
47757;SHT35;22147;52.388;13.390;2023-11-19T05:16:50;4.42;93.44
47757;SHT35;22147;52.388;13.390;2023-11-19T05:19:20;4.41;93.53
47757;SHT35;22147;52.388;13.390;2023-11-19T05:21:48;4.49;93.63
47757;SHT35;22147;52.388;13.390;2023-11-19T05:24:20;4.44;93.64
47757;SHT35;22147;52.388;13.390;2023-11-19T05:26:48;4.52;93.67
47757;SHT35;22147;52.388;13.390;2023-11-19T05:29:20;4.45;93.68
47757;SHT35;22147;52.388;13.390;2023-11-19T05:31:48;4.45;93.75
47757;SHT35;22147;52.388;13.390;2023-11-19T05:34:17;4.45;93.79
47757;SHT35;22147;52.388;13.390;2023-11-19T05:36:45;4.45;93.85
47757;SHT35;22147;52.388;13.390;2023-11-19T05:39:13;4.52;93.93
47757;SHT35;22147;52.388;13.390;2023-11-19T05:41:42;4.49;93.94
47757;SHT35;22147;52.388;13.390;2023-11-19T05:44:10;4.52;93.95
47757;SHT35;22147;52.388;13.390;2023-11-19T05:46:39;4.55;93.93
47757;SHT35;22147;52.388;13.390;2023-11-19T05:49:11;4.50;94.04
47757;SHT35;22147;52.388;13.390;2023-11-19T05:51:41;4.44;94.09
47757;SHT35;22147;52.388;13.390;2023-11-19T05:54:11;4.46;94.17
47757;SHT35;22147;52.388;13.390;2023-11-19T05:56:41;4.45;94.25
47757;SHT35;22147;52.388;13.390;2023-11-19T05:59:11;4.46;94.32
47757;SHT35;22147;52.388;13.390;2023-11-19T06:01:44;4.42;94.36
47757;SHT35;22147;52.388;13.390;2023-11-19T06:04:14;4.50;94.45
47757;SHT35;22147;52.388;13.390;2023-11-19T06:06:44;4.53;94.46
47757;SHT35;22147;52.388;13.390;2023-11-19T06:09:14;4.53;94.43
47757;SHT35;22147;52.388;13.390;2023-11-19T06:11:44;4.49;94.44
47757;SHT35;22147;52.388;13.390;2023-11-19T06:14:14;4.48;94.48
47757;SHT35;22147;52.388;13.390;2023-11-19T06:16:44;4.48;94.53
47757;SHT35;22147;52.388;13.390;2023-11-19T06:19:14;4.48;94.56
47757;SHT35;22147;52.388;13.390;2023-11-19T06:21:44;4.53;94.65
47757;SHT35;22147;52.388;13.390;2023-11-19T06:24:14;4.53;94.65
47757;SHT35;22147;52.388;13.390;2023-11-19T06:26:44;4.52;94.65
47757;SHT35;22147;52.388;13.390;2023-11-19T06:29:14;4.52;94.73
47757;SHT35;22147;52.388;13.390;2023-11-19T06:31:47;4.56;94.79
47757;SHT35;22147;52.388;13.390;2023-11-19T06:34:17;4.55;94.77
47757;SHT35;22147;52.388;13.390;2023-11-19T06:36:48;4.56;94.77
47757;SHT35;22147;52.388;13.390;2023-11-19T06:39:18;4.60;94.79
47757;SHT35;22147;52.388;13.390;2023-11-19T06:41:48;4.65;94.79
47757;SHT35;22147;52.388;13.390;2023-11-19T06:44:18;4.65;94.80
47757;SHT35;22147;52.388;13.390;2023-11-19T06:46:49;4.65;94.76
47757;SHT35;22147;52.388;13.390;2023-11-19T06:49:18;4.63;94.78
47757;SHT35;22147;52.388;13.390;2023-11-19T06:51:48;4.62;94.81
47757;SHT35;22147;52.388;13.390;2023-11-19T06:54:18;4.63;94.88
47757;SHT35;22147;52.388;13.390;2023-11-19T06:56:48;4.66;94.87
47757;SHT35;22147;52.388;13.390;2023-11-19T06:59:18;4.69;94.94
47757;SHT35;22147;52.388;13.390;2023-11-19T07:01:49;4.70;94.97
47757;SHT35;22147;52.388;13.390;2023-11-19T07:04:19;4.72;95.02
47757;SHT35;22147;52.388;13.390;2023-11-19T07:06:48;4.73;95.03
47757;SHT35;22147;52.388;13.390;2023-11-19T07:09:17;4.73;95.08
47757;SHT35;22147;52.388;13.390;2023-11-19T07:11:45;4.76;95.13
47757;SHT35;22147;52.388;13.390;2023-11-19T07:14:14;4.83;95.22
47757;SHT35;22147;52.388;13.390;2023-11-19T07:16:43;4.86;95.19
47757;SHT35;22147;52.388;13.390;2023-11-19T07:19:11;4.88;95.23
47757;SHT35;22147;52.388;13.390;2023-11-19T07:21:42;4.91;95.21
47757;SHT35;22147;52.388;13.390;2023-11-19T07:24:13;4.91;95.23
47757;SHT35;22147;52.388;13.390;2023-11-19T07:26:47;4.98;95.23
47757;SHT35;22147;52.388;13.390;2023-11-19T07:29:16;5.01;95.26
47757;SHT35;22147;52.388;13.390;2023-11-19T07:31:58;5.08;95.30
47757;SHT35;22147;52.388;13.390;2023-11-19T07:34:28;5.08;95.30
47757;SHT35;22147;52.388;13.390;2023-11-19T07:36:58;5.15;95.37
47757;SHT35;22147;52.388;13.390;2023-11-19T07:39:32;5.15;95.37
47757;SHT35;22147;52.388;13.390;2023-11-19T07:42:02;5.22;95.37
47757;SHT35;22147;52.388;13.390;2023-11-19T07:44:33;5.36;95.41
47757;SHT35;22147;52.388;13.390;2023-11-19T07:47:01;5.31;95.40
47757;SHT35;22147;52.388;13.390;2023-11-19T07:49:30;5.32;95.39
47757;SHT35;22147;52.388;13.390;2023-11-19T07:51:59;5.39;95.47
47757;SHT35;22147;52.388;13.390;2023-11-19T07:54:27;5.45;95.42
47757;SHT35;22147;52.388;13.390;2023-11-19T07:56:58;5.46;95.43
47757;SHT35;22147;52.388;13.390;2023-11-19T07:59:26;5.49;95.41
47757;SHT35;22147;52.388;13.390;2023-11-19T08:01:55;5.53;95.46
47757;SHT35;22147;52.388;13.390;2023-11-19T08:04:23;5.58;95.43
47757;SHT35;22147;52.388;13.390;2023-11-19T08:06:51;5.60;95.48
47757;SHT35;22147;52.388;13.390;2023-11-19T08:09:23;5.63;95.50
47757;SHT35;22147;52.388;13.390;2023-11-19T08:11:53;5.67;95.53
47757;SHT35;22147;52.388;13.390;2023-11-19T08:14:26;5.83;95.56
47757;SHT35;22147;52.388;13.390;2023-11-19T08:16:56;5.85;95.53
47757;SHT35;22147;52.388;13.390;2023-11-19T08:19:26;5.86;95.53
47757;SHT35;22147;52.388;13.390;2023-11-19T08:22:00;5.96;95.56
47757;SHT35;22147;52.388;13.390;2023-11-19T08:24:30;5.96;95.51
47757;SHT35;22147;52.388;13.390;2023-11-19T08:27:01;6.06;95.52
47757;SHT35;22147;52.388;13.390;2023-11-19T08:29:32;6.13;95.59
47757;SHT35;22147;52.388;13.390;2023-11-19T08:32:02;6.22;95.59
47757;SHT35;22147;52.388;13.390;2023-11-19T08:34:33;6.37;95.64
47757;SHT35;22147;52.388;13.390;2023-11-19T08:37:03;6.45;95.62
47757;SHT35;22147;52.388;13.390;2023-11-19T08:39:33;6.49;95.61
47757;SHT35;22147;52.388;13.390;2023-11-19T08:42:05;6.55;95.53
47757;SHT35;22147;52.388;13.390;2023-11-19T08:44:35;6.68;95.55
47757;SHT35;22147;52.388;13.390;2023-11-19T08:47:05;6.67;95.50
47757;SHT35;22147;52.388;13.390;2023-11-19T08:49:34;6.73;95.43
47757;SHT35;22147;52.388;13.390;2023-11-19T08:52:02;6.83;95.51
47757;SHT35;22147;52.388;13.390;2023-11-19T08:54:30;6.95;95.46
47757;SHT35;22147;52.388;13.390;2023-11-19T08:56:59;7.06;95.49
47757;SHT35;22147;52.388;13.390;2023-11-19T08:59:27;7.14;95.46
47757;SHT35;22147;52.388;13.390;2023-11-19T09:01:56;7.20;95.37
47757;SHT35;22147;52.388;13.390;2023-11-19T09:04:24;7.17;95.25
47757;SHT35;22147;52.388;13.390;2023-11-19T09:06:53;7.17;95.18
47757;SHT35;22147;52.388;13.390;2023-11-19T09:09:21;7.26;95.19
47757;SHT35;22147;52.388;13.390;2023-11-19T09:11:50;7.27;95.16
47757;SHT35;22147;52.388;13.390;2023-11-19T09:14:18;7.34;95.15
47757;SHT35;22147;52.388;13.390;2023-11-19T09:16:46;7.38;95.15
47757;SHT35;22147;52.388;13.390;2023-11-19T09:19:15;7.54;95.20
47757;SHT35;22147;52.388;13.390;2023-11-19T09:21:43;7.74;95.19
47757;SHT35;22147;52.388;13.390;2023-11-19T09:24:12;8.06;95.10
47757;SHT35;22147;52.388;13.390;2023-11-19T09:26:43;8.23;94.96
47757;SHT35;22147;52.388;13.390;2023-11-19T09:29:12;8.27;94.83
47757;SHT35;22147;52.388;13.390;2023-11-19T09:31:44;8.29;94.60
47757;SHT35;22147;52.388;13.390;2023-11-19T09:34:14;8.30;94.34
47757;SHT35;22147;52.388;13.390;2023-11-19T09:36:44;8.47;94.32
47757;SHT35;22147;52.388;13.390;2023-11-19T09:39:15;8.67;94.29
47757;SHT35;22147;52.388;13.390;2023-11-19T09:41:47;8.86;94.11
47757;SHT35;22147;52.388;13.390;2023-11-19T09:44:18;9.11;93.96
47757;SHT35;22147;52.388;13.390;2023-11-19T09:46:49;9.47;93.73
47757;SHT35;22147;52.388;13.390;2023-11-19T09:49:26;9.65;93.34
47757;SHT35;22147;52.388;13.390;2023-11-19T09:51:59;9.84;92.77
47757;SHT35;22147;52.388;13.390;2023-11-19T09:54:30;10.11;92.51
47757;SHT35;22147;52.388;13.390;2023-11-19T09:57:02;10.22;91.86
47757;SHT35;22147;52.388;13.390;2023-11-19T09:59:37;10.50;91.63
47757;SHT35;22147;52.388;13.390;2023-11-19T10:02:09;10.87;91.05
47757;SHT35;22147;52.388;13.390;2023-11-19T10:04:43;11.14;89.75
47757;SHT35;22147;52.388;13.390;2023-11-19T10:07:14;11.32;87.67
47757;SHT35;22147;52.388;13.390;2023-11-19T10:09:44;11.38;87.40
47757;SHT35;22147;52.388;13.390;2023-11-19T10:12:16;11.46;87.11
47757;SHT35;22147;52.388;13.390;2023-11-19T10:14:47;11.50;86.67
47757;SHT35;22147;52.388;13.390;2023-11-19T10:17:17;11.57;86.97
47757;SHT35;22147;52.388;13.390;2023-11-19T10:19:47;11.52;86.39
47757;SHT35;22147;52.388;13.390;2023-11-19T10:22:18;11.34;86.46
47757;SHT35;22147;52.388;13.390;2023-11-19T10:24:48;11.24;86.76
47757;SHT35;22147;52.388;13.390;2023-11-19T10:27:24;11.18;87.46
47757;SHT35;22147;52.388;13.390;2023-11-19T10:29:59;11.15;87.48
47757;SHT35;22147;52.388;13.390;2023-11-19T10:32:30;11.07;87.85
47757;SHT35;22147;52.388;13.390;2023-11-19T10:35:06;10.98;87.82
47757;SHT35;22147;52.388;13.390;2023-11-19T10:37:37;10.87;88.01
47757;SHT35;22147;52.388;13.390;2023-11-19T10:40:06;10.88;87.95
47757;SHT35;22147;52.388;13.390;2023-11-19T10:42:41;11.10;88.37
47757;SHT35;22147;52.388;13.390;2023-11-19T10:45:23;11.38;87.91
47757;SHT35;22147;52.388;13.390;2023-11-19T10:47:57;11.52;87.03
47757;SHT35;22147;52.388;13.390;2023-11-19T10:50:27;11.57;86.82
47757;SHT35;22147;52.388;13.390;2023-11-19T10:52:59;11.66;86.55
47757;SHT35;22147;52.388;13.390;2023-11-19T10:55:35;11.79;86.02
47757;SHT35;22147;52.388;13.390;2023-11-19T10:58:10;11.71;85.53
47757;SHT35;22147;52.388;13.390;2023-11-19T11:00:48;11.77;85.50
47757;SHT35;22147;52.388;13.390;2023-11-19T11:03:24;11.66;86.08
47757;SHT35;22147;52.388;13.390;2023-11-19T11:05:56;11.69;86.38
47757;SHT35;22147;52.388;13.390;2023-11-19T11:08:30;11.60;86.87
47757;SHT35;22147;52.388;13.390;2023-11-19T11:11:01;11.59;86.41
47757;SHT35;22147;52.388;13.390;2023-11-19T11:13:33;11.62;86.14
47757;SHT35;22147;52.388;13.390;2023-11-19T11:16:06;11.57;86.73
47757;SHT35;22147;52.388;13.390;2023-11-19T11:18:38;11.53;86.26
47757;SHT35;22147;52.388;13.390;2023-11-19T11:21:22;11.47;86.74
47757;SHT35;22147;52.388;13.390;2023-11-19T11:24:18;11.46;86.87
47757;SHT35;22147;52.388;13.390;2023-11-19T11:27:38;11.47;86.90
47757;SHT35;22147;52.388;13.390;2023-11-19T11:36:19;11.42;88.12
47757;SHT35;22147;52.388;13.390;2023-11-19T11:38:50;11.40;87.96
47757;SHT35;22147;52.388;13.390;2023-11-19T11:41:22;11.45;88.15
47757;SHT35;22147;52.388;13.390;2023-11-19T11:43:58;11.57;87.61
47757;SHT35;22147;52.388;13.390;2023-11-19T11:49:06;11.71;86.93
47757;SHT35;22147;52.388;13.390;2023-11-19T11:57:13;11.87;86.50
47757;SHT35;22147;52.388;13.390;2023-11-19T12:02:20;12.08;85.81
47757;SHT35;22147;52.388;13.390;2023-11-19T12:04:52;12.11;85.18
47757;SHT35;22147;52.388;13.390;2023-11-19T12:07:24;12.08;85.93
47757;SHT35;22147;52.388;13.390;2023-11-19T12:10:08;12.18;85.76
47757;SHT35;22147;52.388;13.390;2023-11-19T12:12:40;12.20;85.31
47757;SHT35;22147;52.388;13.390;2023-11-19T12:15:12;12.17;84.90
47757;SHT35;22147;52.388;13.390;2023-11-19T12:17:49;12.15;84.82
47757;SHT35;22147;52.388;13.390;2023-11-19T12:20:25;12.13;84.53
47757;SHT35;22147;52.388;13.390;2023-11-19T12:23:04;12.11;84.73
47757;SHT35;22147;52.388;13.390;2023-11-19T12:25:35;12.08;84.42
47757;SHT35;22147;52.388;13.390;2023-11-19T12:28:06;12.13;84.40
47757;SHT35;22147;52.388;13.390;2023-11-19T12:30:41;12.24;84.35
47757;SHT35;22147;52.388;13.390;2023-11-19T12:33:13;12.17;84.07
47757;SHT35;22147;52.388;13.390;2023-11-19T12:35:48;12.20;83.91
47757;SHT35;22147;52.388;13.390;2023-11-19T12:38:24;12.13;84.32
47757;SHT35;22147;52.388;13.390;2023-11-19T12:41:10;12.15;84.82
47757;SHT35;22147;52.388;13.390;2023-11-19T12:43:41;12.10;84.12
47757;SHT35;22147;52.388;13.390;2023-11-19T12:46:23;12.11;84.20
47757;SHT35;22147;52.388;13.390;2023-11-19T12:48:53;12.18;84.67
47757;SHT35;22147;52.388;13.390;2023-11-19T12:51:31;12.18;84.14
47757;SHT35;22147;52.388;13.390;2023-11-19T12:54:02;12.24;84.18
47757;SHT35;22147;52.388;13.390;2023-11-19T12:56:33;12.24;84.42
47757;SHT35;22147;52.388;13.390;2023-11-19T12:59:11;12.22;83.36
47757;SHT35;22147;52.388;13.390;2023-11-19T13:01:41;12.15;83.50
47757;SHT35;22147;52.388;13.390;2023-11-19T13:04:19;12.13;83.52
47757;SHT35;22147;52.388;13.390;2023-11-19T13:06:50;12.11;83.42
47757;SHT35;22147;52.388;13.390;2023-11-19T13:09:27;12.08;83.94
47757;SHT35;22147;52.388;13.390;2023-11-19T13:11:57;12.00;84.32
47757;SHT35;22147;52.388;13.390;2023-11-19T13:14:37;11.95;83.72
47757;SHT35;22147;52.388;13.390;2023-11-19T13:17:06;11.89;84.20
47757;SHT35;22147;52.388;13.390;2023-11-19T13:19:36;11.89;83.94
47757;SHT35;22147;52.388;13.390;2023-11-19T13:22:06;11.77;84.31
47757;SHT35;22147;52.388;13.390;2023-11-19T13:24:36;11.71;84.58
47757;SHT35;22147;52.388;13.390;2023-11-19T13:27:07;11.71;84.67
47757;SHT35;22147;52.388;13.390;2023-11-19T13:29:37;11.62;85.02
47757;SHT35;22147;52.388;13.390;2023-11-19T13:32:08;11.60;85.44
47757;SHT35;22147;52.388;13.390;2023-11-19T13:34:38;11.53;85.91
47757;SHT35;22147;52.388;13.390;2023-11-19T13:37:08;11.52;86.16
47757;SHT35;22147;52.388;13.390;2023-11-19T13:39:42;11.52;86.34
47757;SHT35;22147;52.388;13.390;2023-11-19T13:42:11;11.50;86.64
47757;SHT35;22147;52.388;13.390;2023-11-19T13:44:41;11.50;86.76
47757;SHT35;22147;52.388;13.390;2023-11-19T13:47:09;11.50;86.86
47757;SHT35;22147;52.388;13.390;2023-11-19T13:49:38;11.52;86.86
47757;SHT35;22147;52.388;13.390;2023-11-19T13:52:06;11.53;86.72
47757;SHT35;22147;52.388;13.390;2023-11-19T13:54:36;11.56;86.81
47757;SHT35;22147;52.388;13.390;2023-11-19T13:57:03;11.49;86.77
47757;SHT35;22147;52.388;13.390;2023-11-19T13:59:31;11.50;86.84
47757;SHT35;22147;52.388;13.390;2023-11-19T14:02:03;11.40;86.68
47757;SHT35;22147;52.388;13.390;2023-11-19T14:04:31;11.39;86.94
47757;SHT35;22147;52.388;13.390;2023-11-19T14:07:00;11.36;86.81
47757;SHT35;22147;52.388;13.390;2023-11-19T14:09:28;11.46;85.71
47757;SHT35;22147;52.388;13.390;2023-11-19T14:11:56;11.45;85.70
47757;SHT35;22147;52.388;13.390;2023-11-19T14:14:25;11.43;85.51
47757;SHT35;22147;52.388;13.390;2023-11-19T14:16:53;11.53;84.43
47757;SHT35;22147;52.388;13.390;2023-11-19T14:19:42;11.52;84.64
47757;SHT35;22147;52.388;13.390;2023-11-19T14:22:10;11.55;84.24
47757;SHT35;22147;52.388;13.390;2023-11-19T14:24:38;11.49;84.31
47757;SHT35;22147;52.388;13.390;2023-11-19T14:27:10;11.42;84.45
47757;SHT35;22147;52.388;13.390;2023-11-19T14:29:38;11.46;84.44
47757;SHT35;22147;52.388;13.390;2023-11-19T14:32:09;11.43;84.23
47757;SHT35;22147;52.388;13.390;2023-11-19T14:34:38;11.43;83.87
47757;SHT35;22147;52.388;13.390;2023-11-19T14:37:06;11.40;83.99
47757;SHT35;22147;52.388;13.390;2023-11-19T14:39:35;11.32;84.51
47757;SHT35;22147;52.388;13.390;2023-11-19T14:42:03;11.29;84.62
47757;SHT35;22147;52.388;13.390;2023-11-19T14:44:33;11.32;84.97
47757;SHT35;22147;52.388;13.390;2023-11-19T14:47:03;11.25;85.21
47757;SHT35;22147;52.388;13.390;2023-11-19T14:49:37;11.14;85.74
47757;SHT35;22147;52.388;13.390;2023-11-19T14:52:06;11.10;85.81
47757;SHT35;22147;52.388;13.390;2023-11-19T14:54:39;11.10;86.30
47757;SHT35;22147;52.388;13.390;2023-11-19T14:57:07;11.05;86.63
47757;SHT35;22147;52.388;13.390;2023-11-19T14:59:38;10.92;86.97
47757;SHT35;22147;52.388;13.390;2023-11-19T15:02:08;10.88;87.27
47757;SHT35;22147;52.388;13.390;2023-11-19T15:04:38;10.83;87.62
47757;SHT35;22147;52.388;13.390;2023-11-19T15:07:08;10.78;87.84
47757;SHT35;22147;52.388;13.390;2023-11-19T15:09:36;10.77;88.11
47757;SHT35;22147;52.388;13.390;2023-11-19T15:12:05;10.71;88.34
47757;SHT35;22147;52.388;13.390;2023-11-19T15:14:33;10.71;88.51
47757;SHT35;22147;52.388;13.390;2023-11-19T15:17:02;10.61;88.63
47757;SHT35;22147;52.388;13.390;2023-11-19T15:19:30;10.63;88.86
47757;SHT35;22147;52.388;13.390;2023-11-19T15:21:59;10.67;88.49
47757;SHT35;22147;52.388;13.390;2023-11-19T15:24:27;10.67;87.91
47757;SHT35;22147;52.388;13.390;2023-11-19T15:26:57;10.73;87.42
47757;SHT35;22147;52.388;13.390;2023-11-19T15:29:43;10.88;86.10
47757;SHT35;22147;52.388;13.390;2023-11-19T15:32:13;10.87;86.12
47757;SHT35;22147;52.388;13.390;2023-11-19T15:34:44;10.87;86.05
47757;SHT35;22147;52.388;13.390;2023-11-19T15:37:14;10.87;85.99
47757;SHT35;22147;52.388;13.390;2023-11-19T15:39:45;10.87;86.01
47757;SHT35;22147;52.388;13.390;2023-11-19T15:42:17;10.84;86.00
47757;SHT35;22147;52.388;13.390;2023-11-19T15:44:47;10.77;86.35
47757;SHT35;22147;52.388;13.390;2023-11-19T15:47:17;10.83;86.09
47757;SHT35;22147;52.388;13.390;2023-11-19T15:49:48;10.90;85.67
47757;SHT35;22147;52.388;13.390;2023-11-19T15:52:18;10.91;85.51
47757;SHT35;22147;52.388;13.390;2023-11-19T15:54:47;10.91;85.66
47757;SHT35;22147;52.388;13.390;2023-11-19T15:57:15;10.87;85.55
47757;SHT35;22147;52.388;13.390;2023-11-19T15:59:43;10.83;85.76
47757;SHT35;22147;52.388;13.390;2023-11-19T16:02:12;10.81;85.80
47757;SHT35;22147;52.388;13.390;2023-11-19T16:04:44;10.69;86.10
47757;SHT35;22147;52.388;13.390;2023-11-19T16:07:17;10.61;86.27